Time;durP1;ratioP1;P1;durP2;ratioP2;P2;SDS_P1;SDS_P2;PMS_P1;PMS_P2;Temp;Humidity;BMP_temperature;BMP_pressure;BME280_temperature;BME280_humidity;BME280_pressure;Samples;Min_cycle;Max_cycle;Signal;HPM_P1;HPM_P2
2021/01/28 00:01:00;;;;;;;36.10;20.47;;;7.00;99.90;;;;;;5073134;28;20199;-79
2021/01/28 00:03:26;;;;;;;32.33;18.83;;;7.10;99.90;;;;;;5073371;28;20251;-79
2021/01/28 00:05:52;;;;;;;33.73;18.53;;;6.90;99.90;;;;;;5072747;28;20199;-81
2021/01/28 00:08:19;;;;;;;31.43;18.63;;;7.10;99.90;;;;;;5072885;28;20650;-80
2021/01/28 00:10:45;;;;;;;30.43;19.30;;;7.10;99.90;;;;;;5073076;28;20203;-79
2021/01/28 00:13:12;;;;;;;26.33;17.60;;;7.10;99.90;;;;;;5072915;28;20646;-79
2021/01/28 00:15:40;;;;;;;30.40;18.13;;;7.00;99.90;;;;;;5073595;28;20337;-79
2021/01/28 00:18:08;;;;;;;28.90;17.90;;;7.00;99.90;;;;;;5072872;28;20199;-79
2021/01/28 00:20:37;;;;;;;27.97;17.87;;;7.00;99.90;;;;;;5072888;28;20632;-79
2021/01/28 00:23:04;;;;;;;30.40;17.33;;;7.10;99.90;;;;;;5072541;28;20206;-79
2021/01/28 00:25:31;;;;;;;32.07;17.50;;;7.00;99.90;;;;;;5072884;28;20199;-79
2021/01/28 00:27:57;;;;;;;27.10;16.67;;;7.00;99.90;;;;;;5072770;28;20195;-80
2021/01/28 00:30:26;;;;;;;27.23;16.23;;;7.00;99.90;;;;;;5073056;28;20321;-80
2021/01/28 00:32:53;;;;;;;25.63;17.10;;;7.00;99.90;;;;;;5073020;28;20206;-80
2021/01/28 00:35:25;;;;;;;27.47;17.17;;;7.00;99.90;;;;;;5072599;28;20218;-79
2021/01/28 00:37:52;;;;;;;25.30;16.50;;;7.00;99.90;;;;;;5073139;28;20206;-81
2021/01/28 00:40:18;;;;;;;23.90;15.50;;;7.10;99.90;;;;;;5076736;28;20199;-80
2021/01/28 00:42:44;;;;;;;29.63;16.60;;;7.00;99.90;;;;;;5077014;28;20202;-80
2021/01/28 00:45:12;;;;;;;24.53;15.63;;;7.10;99.90;;;;;;5076924;28;20225;-81
2021/01/28 00:47:38;;;;;;;21.90;15.07;;;7.00;99.90;;;;;;5076754;28;20256;-81
2021/01/28 00:50:07;;;;;;;23.97;13.93;;;7.10;99.90;;;;;;5076816;28;20324;-81
2021/01/28 00:52:33;;;;;;;22.03;14.60;;;7.00;99.90;;;;;;5076530;28;20750;-81
2021/01/28 00:54:59;;;;;;;23.70;15.67;;;7.00;99.90;;;;;;5076617;28;20293;-81
2021/01/28 00:57:26;;;;;;;20.00;14.00;;;7.10;99.90;;;;;;5076673;28;20198;-81
2021/01/28 00:59:52;;;;;;;21.17;14.47;;;7.00;99.90;;;;;;5076731;28;20286;-80
2021/01/28 01:02:18;;;;;;;21.23;13.57;;;7.10;99.90;;;;;;5076604;28;20207;-81
2021/01/28 01:04:45;;;;;;;20.97;14.07;;;7.00;99.90;;;;;;5076648;28;20223;-81
2021/01/28 01:07:12;;;;;;;19.60;14.23;;;7.10;99.90;;;;;;5076576;28;20241;-81
2021/01/28 01:09:38;;;;;;;19.93;13.07;;;7.10;99.90;;;;;;5076275;28;20252;-81
2021/01/28 01:12:05;;;;;;;22.20;14.47;;;7.10;99.90;;;;;;5076382;28;20340;-80
2021/01/28 01:14:32;;;;;;;21.47;13.43;;;7.10;99.90;;;;;;5076217;28;20209;-80
2021/01/28 01:16:58;;;;;;;20.07;13.33;;;7.10;99.90;;;;;;5075660;28;20206;-81
2021/01/28 01:19:24;;;;;;;23.30;14.57;;;7.00;99.90;;;;;;5075971;28;20664;-82
2021/01/28 01:21:51;;;;;;;21.00;14.47;;;7.10;99.90;;;;;;5076010;28;20670;-80
2021/01/28 01:24:18;;;;;;;20.53;14.10;;;7.10;99.90;;;;;;5075952;28;20777;-80
2021/01/28 01:26:44;;;;;;;18.03;12.80;;;7.10;99.90;;;;;;5075823;28;20199;-78
2021/01/28 01:29:11;;;;;;;20.97;13.97;;;7.10;99.90;;;;;;5076342;28;20199;-79
2021/01/28 01:31:37;;;;;;;21.50;14.03;;;7.10;99.90;;;;;;5075824;28;20199;-80
2021/01/28 01:34:03;;;;;;;18.40;12.87;;;7.00;99.90;;;;;;5075823;28;20673;-80
2021/01/28 01:36:29;;;;;;;18.10;13.23;;;7.10;99.90;;;;;;5075486;28;20206;-80
2021/01/28 01:38:56;;;;;;;18.90;13.23;;;7.10;99.90;;;;;;5076135;28;20209;-80
2021/01/28 01:41:29;;;;;;;20.57;13.47;;;7.10;99.90;;;;;;5075783;28;20248;-80
2021/01/28 01:43:59;;;;;;;20.93;12.80;;;7.10;99.90;;;;;;5075611;28;20237;-79
2021/01/28 01:46:26;;;;;;;19.83;12.50;;;7.10;99.90;;;;;;5075683;28;20232;-79
2021/01/28 01:48:57;;;;;;;19.43;13.37;;;7.10;99.90;;;;;;5075388;28;20613;-80
2021/01/28 01:51:28;;;;;;;19.83;13.17;;;7.20;99.90;;;;;;5074781;28;20676;-80
2021/01/28 01:53:57;;;;;;;18.80;12.90;;;7.10;99.90;;;;;;5075399;28;20225;-80
2021/01/28 01:56:27;;;;;;;19.50;13.10;;;7.10;99.90;;;;;;5075396;28;20199;-80
2021/01/28 01:59:05;;;;;;;18.57;12.80;;;7.00;99.90;;;;;;5075267;28;20232;-81
2021/01/28 02:01:37;;;;;;;18.30;12.37;;;7.10;99.90;;;;;;5075616;28;20202;-80
2021/01/28 02:04:04;;;;;;;22.60;14.07;;;7.10;99.90;;;;;;5074772;28;20545;-78
2021/01/28 02:06:37;;;;;;;20.20;12.97;;;7.10;99.90;;;;;;5075313;28;20206;-79
2021/01/28 02:09:05;;;;;;;17.53;12.37;;;7.10;99.90;;;;;;5075161;28;20252;-80
2021/01/28 02:11:33;;;;;;;19.40;13.80;;;7.10;99.90;;;;;;5075314;28;20285;-78
2021/01/28 02:14:01;;;;;;;17.53;12.63;;;7.10;99.90;;;;;;5075094;28;20206;-78
2021/01/28 02:16:31;;;;;;;17.57;13.20;;;7.10;99.90;;;;;;5074940;28;20203;-79
2021/01/28 02:19:00;;;;;;;19.00;12.40;;;7.10;99.90;;;;;;5084907;28;20661;-78
2021/01/28 02:21:29;;;;;;;20.10;13.40;;;7.10;99.90;;;;;;5088934;28;20604;-78
2021/01/28 02:24:29;;;;;;;21.17;13.07;;;7.10;99.90;;;;;;5087223;28;20222;-78
2021/01/28 02:26:57;;;;;;;19.37;13.27;;;7.10;99.90;;;;;;5084514;28;20208;-78
2021/01/28 02:29:24;;;;;;;19.17;13.03;;;7.10;99.90;;;;;;5082876;28;20202;-79
2021/01/28 02:31:55;;;;;;;17.57;13.47;;;7.10;99.90;;;;;;5080659;28;20252;-79
2021/01/28 02:34:22;;;;;;;21.23;13.90;;;7.00;99.90;;;;;;5094527;28;20198;-79
2021/01/28 02:36:51;;;;;;;19.87;13.90;;;7.10;99.90;;;;;;5081582;28;20642;-78
2021/01/28 02:39:21;;;;;;;21.23;13.83;;;7.10;99.90;;;;;;5093986;28;20194;-79
2021/01/28 02:41:55;;;;;;;19.97;13.20;;;7.10;99.90;;;;;;5082609;28;20293;-79
2021/01/28 02:44:22;;;;;;;21.10;13.77;;;7.10;99.90;;;;;;5079386;28;20205;-78
2021/01/28 02:46:48;;;;;;;19.30;14.10;;;7.10;99.90;;;;;;5094345;28;20718;-79
2021/01/28 02:49:16;;;;;;;21.93;13.57;;;7.10;99.90;;;;;;5094451;28;20194;-81
2021/01/28 02:51:43;;;;;;;22.60;13.73;;;7.10;99.90;;;;;;5084909;28;20195;-79
2021/01/28 02:54:10;;;;;;;19.57;14.60;;;7.10;99.90;;;;;;5074980;28;20650;-79
2021/01/28 02:56:37;;;;;;;24.47;14.53;;;7.10;99.90;;;;;;5087128;28;20197;-78
2021/01/28 02:59:04;;;;;;;24.10;15.07;;;7.20;99.90;;;;;;5088352;28;20206;-79
2021/01/28 03:01:32;;;;;;;19.47;13.97;;;7.20;99.90;;;;;;5074296;28;20265;-78
2021/01/28 03:03:59;;;;;;;25.20;14.47;;;7.20;99.90;;;;;;5074861;28;20230;-79
2021/01/28 03:06:25;;;;;;;24.27;15.30;;;7.20;99.90;;;;;;5093113;28;20206;-78
2021/01/28 03:08:51;;;;;;;20.83;14.23;;;7.20;99.90;;;;;;5094338;28;20198;-79
2021/01/28 03:11:18;;;;;;;19.80;14.27;;;7.20;99.90;;;;;;5094401;28;20194;-78
2021/01/28 03:13:45;;;;;;;26.07;14.40;;;7.30;99.90;;;;;;5086005;28;20293;-79
2021/01/28 03:16:11;;;;;;;24.23;15.03;;;7.20;99.90;;;;;;5088130;28;20289;-79
2021/01/28 03:18:38;;;;;;;20.03;13.97;;;7.20;99.90;;;;;;5080915;28;20246;-78
2021/01/28 03:21:05;;;;;;;19.17;13.55;;;7.30;99.90;;;;;;5094439;28;20284;-78
2021/01/28 03:23:31;;;;;;;19.80;14.50;;;7.30;99.90;;;;;;5093937;28;20274;-78
2021/01/28 03:25:58;;;;;;;23.03;14.20;;;7.30;99.90;;;;;;5084134;28;20206;-78
2021/01/28 03:28:24;;;;;;;21.00;13.95;;;7.30;99.90;;;;;;5088233;28;20222;-78
2021/01/28 03:30:50;;;;;;;20.63;14.53;;;7.30;99.90;;;;;;5082218;28;20284;-78
2021/01/28 03:33:19;;;;;;;18.20;14.30;;;7.20;99.90;;;;;;5093689;28;20202;-78
2021/01/28 03:35:47;;;;;;;20.33;14.10;;;7.30;99.90;;;;;;5094491;28;20210;-76
2021/01/28 03:38:13;;;;;;;19.77;14.03;;;7.30;99.90;;;;;;5094114;28;20671;-77
2021/01/28 03:40:40;;;;;;;17.57;12.97;;;7.30;99.90;;;;;;5074805;28;20203;-76
2021/01/28 03:43:08;;;;;;;16.87;12.67;;;7.30;99.90;;;;;;5074108;28;20523;-76
2021/01/28 03:45:35;;;;;;;19.07;13.03;;;7.30;99.90;;;;;;5073452;28;20230;-76
2021/01/28 03:48:01;;;;;;;16.97;12.70;;;7.30;99.90;;;;;;5073830;28;20210;-76
2021/01/28 03:50:30;;;;;;;17.77;13.10;;;7.30;99.90;;;;;;5087852;28;20198;-76
2021/01/28 03:52:58;;;;;;;16.00;11.80;;;7.30;99.90;;;;;;5082188;28;20199;-76
2021/01/28 03:55:24;;;;;;;16.70;12.27;;;7.30;99.90;;;;;;5079818;28;20206;-76
2021/01/28 03:57:52;;;;;;;16.93;12.53;;;7.30;99.90;;;;;;5094019;28;20208;-76
2021/01/28 04:00:23;;;;;;;16.17;11.77;;;7.40;99.90;;;;;;5093774;28;20203;-75
2021/01/28 04:02:50;;;;;;;12.90;10.50;;;7.40;99.90;;;;;;5088123;28;20281;-75
2021/01/28 04:05:17;;;;;;;13.13;11.33;;;7.40;99.90;;;;;;5073706;28;20242;-75
2021/01/28 04:07:43;;;;;;;14.33;12.10;;;7.40;99.90;;;;;;5076647;28;20653;-74
2021/01/28 04:10:14;;;;;;;15.73;11.57;;;7.40;99.90;;;;;;5093664;28;20198;-75
2021/01/28 04:12:41;;;;;;;13.20;11.03;;;7.40;99.90;;;;;;5078561;28;20198;-75
2021/01/28 04:15:09;;;;;;;11.87;10.07;;;7.40;99.90;;;;;;5093521;28;20235;-74
2021/01/28 04:17:36;;;;;;;14.60;11.10;;;7.40;99.90;;;;;;5093443;28;20239;-74
2021/01/28 04:20:03;;;;;;;16.20;11.73;;;7.40;99.90;;;;;;5085913;28;20658;-74
2021/01/28 04:22:29;;;;;;;14.20;11.20;;;7.50;99.90;;;;;;5073109;28;20209;-74
2021/01/28 04:24:56;;;;;;;14.40;10.88;;;7.50;99.90;;;;;;5078375;28;20233;-74
2021/01/28 04:27:23;;;;;;;13.48;10.25;;;7.50;99.90;;;;;;5093373;28;20198;-74
2021/01/28 04:29:49;;;;;;;12.23;10.10;;;7.50;99.90;;;;;;5079009;28;20206;-74
2021/01/28 04:32:16;;;;;;;12.38;10.10;;;7.50;99.90;;;;;;5071182;28;20241;-74
2021/01/28 04:34:42;;;;;;;11.13;9.93;;;7.50;99.90;;;;;;5072341;28;20210;-73
2021/01/28 04:37:08;;;;;;;12.75;10.40;;;7.40;99.90;;;;;;5087173;28;20233;-75
2021/01/28 04:39:35;;;;;;;11.18;9.25;;;7.50;99.90;;;;;;5083065;28;20292;-74
2021/01/28 04:42:02;;;;;;;13.03;9.33;;;7.60;99.90;;;;;;5076664;28;20202;-74
2021/01/28 04:44:30;;;;;;;12.47;10.63;;;7.50;99.90;;;;;;5072699;28;20218;-74
2021/01/28 04:46:57;;;;;;;10.75;9.65;;;7.50;99.90;;;;;;5086512;28;20202;-73
2021/01/28 04:49:27;;;;;;;13.43;9.73;;;7.50;99.90;;;;;;5079651;28;20225;-73
2021/01/28 04:52:03;;;;;;;11.23;9.80;;;7.50;99.90;;;;;;5079232;28;20670;-73
2021/01/28 04:54:33;;;;;;;11.17;9.53;;;7.40;99.90;;;;;;5059807;28;20198;-73
2021/01/28 04:57:06;;;;;;;11.33;9.43;;;7.50;99.90;;;;;;5072876;28;20223;-74
2021/01/28 04:59:37;;;;;;;11.40;9.90;;;7.50;99.90;;;;;;5059344;28;20294;-73
2021/01/28 05:02:06;;;;;;;11.87;9.67;;;7.60;99.90;;;;;;5072983;28;20222;-75
2021/01/28 05:04:37;;;;;;;12.40;9.60;;;7.60;99.90;;;;;;5072769;28;20241;-73
2021/01/28 05:07:04;;;;;;;10.65;9.23;;;7.50;99.90;;;;;;5073088;28;20199;-73
2021/01/28 05:09:31;;;;;;;11.97;9.13;;;7.50;99.90;;;;;;5091510;28;20236;-74
2021/01/28 05:11:58;;;;;;;10.33;9.07;;;7.60;99.90;;;;;;5092738;28;20664;-73
2021/01/28 05:14:27;;;;;;;10.73;9.13;;;7.60;99.90;;;;;;5092850;28;20310;-74
2021/01/28 05:16:56;;;;;;;9.00;8.10;;;7.60;99.90;;;;;;5092646;28;20202;-73
2021/01/28 05:19:36;;;;;;;12.30;9.23;;;7.60;99.90;;;;;;5076957;28;20209;-73
2021/01/28 05:22:20;;;;;;;10.00;8.90;;;7.70;99.90;;;;;;5072601;28;20201;-73
2021/01/28 05:24:48;;;;;;;11.13;7.80;;;7.60;99.90;;;;;;5092606;28;20613;-73
2021/01/28 05:27:18;;;;;;;11.37;8.43;;;7.60;99.90;;;;;;5096349;28;20209;-73
2021/01/28 05:29:47;;;;;;;9.38;7.78;;;7.60;99.90;;;;;;5096553;28;20206;-74
2021/01/28 05:32:31;;;;;;;11.27;8.60;;;7.60;99.90;;;;;;5076581;28;20256;-72
2021/01/28 05:35:13;;;;;;;9.67;7.80;;;7.70;99.90;;;;;;5076441;28;20293;-79
2021/01/28 05:37:40;;;;;;;9.10;7.47;;;7.60;99.90;;;;;;5087980;28;20205;-73
2021/01/28 05:40:16;;;;;;;8.60;7.70;;;7.60;99.90;;;;;;5090568;28;20213;-73
2021/01/28 05:42:43;;;;;;;9.17;7.43;;;7.70;99.90;;;;;;5076121;28;20191;-73
2021/01/28 05:45:31;;;;;;;8.20;7.37;;;7.70;99.90;;;;;;5089805;28;20233;-79
2021/01/28 05:48:24;;;;;;;7.73;6.93;;;7.70;99.90;;;;;;5065109;28;20206;-73
2021/01/28 05:51:10;;;;;;;7.70;6.60;;;7.70;99.90;;;;;;5075827;28;20187;-73
2021/01/28 05:53:36;;;;;;;7.13;6.33;;;7.70;99.90;;;;;;5076167;28;20201;-73
2021/01/28 05:56:07;;;;;;;7.10;6.20;;;7.70;99.90;;;;;;5095163;28;20198;-73
2021/01/28 05:58:42;;;;;;;6.47;5.87;;;7.70;99.90;;;;;;5083300;28;20213;-73
2021/01/28 06:01:16;;;;;;;7.00;6.23;;;7.70;99.90;;;;;;5089860;28;20208;-73
2021/01/28 06:04:13;;;;;;;6.87;6.17;;;7.70;99.90;;;;;;5075310;28;20195;-73
2021/01/28 06:07:13;;;;;;;7.07;5.60;;;7.80;99.90;;;;;;5064305;28;20561;-74
2021/01/28 06:10:03;;;;;;;7.37;5.67;;;7.90;99.90;;;;;;5058714;28;20202;-73
2021/01/28 06:12:54;;;;;;;6.93;5.57;;;7.80;99.90;;;;;;5073729;28;20543;-73
2021/01/28 06:15:49;;;;;;;6.17;5.43;;;7.80;99.90;;;;;;5085988;28;20553;-74
2021/01/28 06:18:51;;;;;;;6.00;5.20;;;7.80;99.90;;;;;;5068142;28;20326;-73
2021/01/28 06:21:52;;;;;;;6.63;4.20;;;7.70;99.90;;;;;;5091646;28;20195;-73
2021/01/28 06:24:49;;;;;;;5.03;4.53;;;7.90;99.90;;;;;;5074861;28;20210;-73
2021/01/28 06:27:37;;;;;;;4.70;4.20;;;7.80;99.90;;;;;;5074539;28;20195;-73
2021/01/28 06:30:18;;;;;;;4.80;4.38;;;7.80;99.90;;;;;;5065721;28;20642;-74
2021/01/28 06:33:13;;;;;;;5.70;4.93;;;7.80;99.90;;;;;;5084808;28;20199;-73
2021/01/28 06:36:01;;;;;;;7.50;5.23;;;7.90;99.90;;;;;;5074026;28;20211;-73
2021/01/28 06:38:47;;;;;;;5.60;4.75;;;7.90;99.90;;;;;;5065480;28;20205;-73
2021/01/28 06:41:16;;;;;;;6.15;4.78;;;7.90;99.90;;;;;;5074476;28;20248;-76
2021/01/28 06:43:49;;;;;;;5.13;4.63;;;7.90;99.90;;;;;;5076512;28;20208;-73
2021/01/28 06:46:40;;;;;;;6.50;5.03;;;7.90;99.90;;;;;;5095310;28;20551;-73
2021/01/28 06:49:16;;;;;;;5.97;4.78;;;7.90;99.90;;;;;;5088276;28;20199;-73
2021/01/28 06:51:54;;;;;;;6.80;5.28;;;7.90;99.90;;;;;;5086825;28;20202;-73
2021/01/28 06:54:28;;;;;;;5.78;4.75;;;8.00;99.90;;;;;;5074611;28;20202;-73
2021/01/28 06:57:06;;;;;;;6.27;5.67;;;8.00;99.90;;;;;;5074386;28;20264;-73
2021/01/28 06:59:48;;;;;;;6.43;5.07;;;8.00;99.90;;;;;;5067246;28;20190;-73
2021/01/28 07:02:27;;;;;;;5.65;5.15;;;8.10;99.90;;;;;;5094312;28;20194;-73
2021/01/28 07:05:07;;;;;;;6.15;5.40;;;8.00;99.90;;;;;;5094561;28;20212;-73
2021/01/28 07:07:41;;;;;;;6.55;5.13;;;8.10;99.90;;;;;;5093975;28;20584;-72
2021/01/28 07:10:15;;;;;;;5.57;4.90;;;8.10;99.90;;;;;;5094136;28;20197;-73
2021/01/28 07:12:45;;;;;;;6.35;4.97;;;8.10;99.90;;;;;;5079940;28;20202;-73
2021/01/28 07:15:13;;;;;;;5.65;5.15;;;8.20;99.90;;;;;;5093913;28;20650;-73
2021/01/28 07:17:45;;;;;;;7.68;5.85;;;8.30;99.90;;;;;;5092443;28;20194;-73
2021/01/28 07:20:29;;;;;;;5.77;5.27;;;8.20;99.90;;;;;;5082369;28;20201;-72
2021/01/28 07:23:19;;;;;;;6.53;5.25;;;8.30;99.90;;;;;;5089524;28;20199;-74
2021/01/28 07:25:48;;;;;;;5.85;5.35;;;8.30;99.90;;;;;;5088481;28;20210;-75
2021/01/28 07:28:28;;;;;;;6.65;5.45;;;8.30;99.90;;;;;;5079598;28;20195;-74
2021/01/28 07:31:40;;;;;;;6.95;5.80;;;8.30;99.90;;;;;;5094014;28;20190;-74
2021/01/28 07:34:11;;;;;;;6.03;4.93;;;8.40;99.90;;;;;;5075412;28;20198;-75
2021/01/28 07:36:46;;;;;;;5.85;5.25;;;8.40;99.90;;;;;;5078834;28;20344;-76
2021/01/28 07:39:36;;;;;;;6.85;5.38;;;8.40;99.90;;;;;;5066464;28;20251;-75
2021/01/28 07:42:06;;;;;;;5.95;5.43;;;8.40;99.90;;;;;;5066750;28;20199;-76
2021/01/28 07:44:44;;;;;;;7.05;5.85;;;8.40;99.90;;;;;;5067002;28;20260;-74
2021/01/28 07:47:47;;;;;;;6.50;5.78;;;8.50;99.90;;;;;;5067834;28;20210;-76
2021/01/28 07:50:45;;;;;;;7.00;6.30;;;8.50;99.90;;;;;;5067121;28;20190;-74
2021/01/28 07:53:46;;;;;;;6.32;5.72;;;8.60;99.90;;;;;;5067213;28;20767;-74
2021/01/28 07:56:54;;;;;;;6.55;5.95;;;8.60;99.90;;;;;;5067917;28;20281;-76
2021/01/28 07:59:30;;;;;;;7.55;6.75;;;8.80;99.90;;;;;;5069936;28;20196;-76
2021/01/28 08:01:58;;;;;;;6.15;5.55;;;8.70;99.90;;;;;;5072310;28;20198;-75
2021/01/28 08:04:30;;;;;;;7.18;6.47;;;8.80;99.90;;;;;;5071477;28;20230;-76
2021/01/28 08:06:59;;;;;;;7.10;6.40;;;8.80;99.90;;;;;;5072251;28;20191;-75
2021/01/28 08:09:25;;;;;;;6.85;6.25;;;8.90;99.90;;;;;;5072278;28;20225;-74
2021/01/28 08:11:55;;;;;;;8.18;5.82;;;8.90;99.90;;;;;;5072714;28;20554;-75
2021/01/28 08:14:24;;;;;;;6.75;6.22;;;8.90;99.90;;;;;;5072820;28;20612;-75
2021/01/28 08:16:52;;;;;;;6.15;5.65;;;9.00;99.90;;;;;;5078092;28;20194;-74
2021/01/28 08:19:23;;;;;;;7.05;6.25;;;9.00;99.90;;;;;;5073064;28;20209;-75
2021/01/28 08:22:02;;;;;;;6.85;6.25;;;9.10;99.90;;;;;;5072682;28;20244;-75
2021/01/28 08:24:35;;;;;;;7.63;6.13;;;9.10;99.90;;;;;;5072513;28;20218;-75
2021/01/28 08:27:12;;;;;;;7.07;6.05;;;9.20;99.90;;;;;;5076721;28;20273;-74
2021/01/28 08:29:38;;;;;;;6.95;6.30;;;9.20;99.90;;;;;;5080420;28;20541;-74
2021/01/28 08:32:18;;;;;;;7.43;6.35;;;9.20;99.90;;;;;;5071516;28;20203;-75
2021/01/28 08:34:44;;;;;;;6.68;6.07;;;9.30;99.90;;;;;;5072544;28;20688;-74
2021/01/28 08:37:14;;;;;;;7.18;6.47;;;9.30;99.90;;;;;;5072522;28;20195;-74
2021/01/28 08:39:41;;;;;;;6.00;5.50;;;9.30;99.90;;;;;;5073035;28;20207;-75
2021/01/28 08:42:11;;;;;;;7.70;6.50;;;9.40;99.90;;;;;;5072492;28;20565;-74
2021/01/28 08:44:39;;;;;;;7.50;6.35;;;9.40;99.90;;;;;;5072626;28;20610;-74
2021/01/28 08:47:12;;;;;;;6.78;5.93;;;9.50;99.90;;;;;;5072774;28;20206;-74
2021/01/28 08:49:39;;;;;;;6.63;5.57;;;9.40;99.90;;;;;;5072933;28;20199;-74
2021/01/28 08:52:09;;;;;;;8.15;6.43;;;9.60;99.90;;;;;;5072760;28;20209;-74
2021/01/28 08:54:38;;;;;;;7.18;6.47;;;9.60;99.90;;;;;;5072874;28;20291;-74
2021/01/28 08:57:09;;;;;;;6.47;5.78;;;9.60;99.90;;;;;;5072435;28;20203;-80
2021/01/28 08:59:41;;;;;;;7.93;7.13;;;9.70;99.90;;;;;;5074288;28;20281;-74
2021/01/28 09:02:11;;;;;;;9.52;6.65;;;9.70;99.90;;;;;;5076555;28;20206;-75
2021/01/28 09:04:42;;;;;;;10.50;7.93;;;9.70;99.90;;;;;;5075452;28;20217;-74
2021/01/28 09:07:10;;;;;;;9.23;6.80;;;9.80;99.90;;;;;;5076322;28;20577;-74
2021/01/28 09:09:36;;;;;;;7.07;6.38;;;9.80;99.90;;;;;;5076313;28;20253;-75
2021/01/28 09:12:23;;;;;;;7.07;6.18;;;9.90;99.90;;;;;;5076414;28;20199;-74
2021/01/28 09:14:50;;;;;;;6.25;5.65;;;9.90;99.90;;;;;;5076512;28;20202;-74
2021/01/28 09:17:23;;;;;;;6.45;5.85;;;10.00;99.90;;;;;;5076451;28;20199;-74
2021/01/28 09:19:55;;;;;;;6.32;5.75;;;9.90;99.90;;;;;;5063103;28;20555;-74
2021/01/28 09:22:33;;;;;;;7.20;6.50;;;9.90;99.90;;;;;;5076040;28;20205;-74
2021/01/28 09:25:01;;;;;;;9.90;5.65;;;10.00;99.90;;;;;;5075879;28;20214;-74
2021/01/28 09:27:34;;;;;;;6.72;6.13;;;9.90;99.90;;;;;;5076235;28;20562;-74
2021/01/28 09:30:22;;;;;;;6.65;5.95;;;9.90;99.90;;;;;;5091280;28;20198;-73
2021/01/28 09:32:49;;;;;;;6.80;5.53;;;10.00;99.90;;;;;;5085597;28;20207;-74
2021/01/28 09:35:20;;;;;;;8.20;5.95;;;10.00;99.90;;;;;;5089964;28;20214;-75
2021/01/28 09:38:00;;;;;;;7.47;6.45;;;10.10;99.90;;;;;;5085042;28;20214;-75
2021/01/28 09:40:29;;;;;;;6.80;5.97;;;10.10;99.90;;;;;;5092588;28;20696;-75
2021/01/28 09:43:26;;;;;;;6.85;6.07;;;10.20;99.90;;;;;;5075815;28;20214;-74
2021/01/28 09:46:10;;;;;;;8.95;5.75;;;10.20;99.90;;;;;;5089762;28;20215;-74
2021/01/28 09:48:37;;;;;;;6.75;6.05;;;10.30;99.90;;;;;;5075577;28;20202;-76
2021/01/28 09:51:04;;;;;;;6.65;5.82;;;10.30;99.90;;;;;;5082064;28;20680;-74
2021/01/28 09:53:31;;;;;;;7.50;5.40;;;10.30;99.90;;;;;;5082517;28;20722;-74
2021/01/28 09:55:58;;;;;;;5.88;5.28;;;10.30;99.90;;;;;;5080416;28;20206;-77
2021/01/28 09:58:25;;;;;;;5.55;5.00;;;10.50;99.90;;;;;;5084287;28;20199;-74
2021/01/28 10:00:51;;;;;;;6.70;5.32;;;10.40;99.90;;;;;;5092360;28;20224;-74
2021/01/28 10:03:19;;;;;;;5.45;4.47;;;10.40;99.90;;;;;;5086338;28;20194;-74
2021/01/28 10:05:46;;;;;;;5.25;4.75;;;10.40;99.90;;;;;;5076591;28;20226;-74
2021/01/28 10:08:14;;;;;;;5.40;4.00;;;10.40;99.90;;;;;;5087916;28;20199;-74
2021/01/28 10:10:41;;;;;;;5.95;4.55;;;10.50;99.90;;;;;;5088235;28;20256;-80
2021/01/28 10:13:10;;;;;;;7.22;4.28;;;10.50;99.90;;;;;;5095588;28;20263;-74
2021/01/28 10:15:37;;;;;;;5.00;4.10;;;10.50;99.90;;;;;;5095577;28;20206;-75
2021/01/28 10:18:03;;;;;;;5.78;3.53;;;10.50;99.90;;;;;;5090075;28;20246;-74
2021/01/28 10:20:30;;;;;;;3.80;3.30;;;10.60;99.90;;;;;;5085696;28;20668;-74
2021/01/28 10:22:59;;;;;;;4.05;3.33;;;10.60;99.90;;;;;;5091906;28;20568;-74
2021/01/28 10:25:26;;;;;;;3.53;3.22;;;10.70;99.90;;;;;;5080521;28;20228;-74
2021/01/28 10:27:53;;;;;;;4.00;3.60;;;10.70;99.90;;;;;;5083147;28;20731;-74
2021/01/28 10:30:22;;;;;;;3.63;3.33;;;10.70;99.90;;;;;;5092616;28;20198;-74
2021/01/28 10:32:51;;;;;;;5.65;3.95;;;10.70;99.90;;;;;;5094607;28;20654;-74
2021/01/28 10:35:20;;;;;;;4.82;3.60;;;10.70;99.90;;;;;;5080553;28;20211;-74
2021/01/28 10:37:46;;;;;;;4.25;3.85;;;10.70;99.90;;;;;;5085574;28;20731;-74
2021/01/28 10:40:14;;;;;;;4.28;3.70;;;10.70;99.90;;;;;;5075337;28;20650;-74
2021/01/28 10:42:42;;;;;;;6.15;4.32;;;10.70;99.90;;;;;;5094917;28;20198;-74
2021/01/28 10:45:12;;;;;;;5.25;4.35;;;10.90;99.90;;;;;;5080874;28;20227;-74
2021/01/28 10:47:39;;;;;;;5.10;4.60;;;10.80;99.90;;;;;;5060766;28;20646;-75
2021/01/28 10:50:08;;;;;;;5.40;4.70;;;10.80;99.90;;;;;;5087510;28;20198;-74
2021/01/28 10:52:34;;;;;;;5.38;4.90;;;10.90;99.90;;;;;;5094389;28;20890;-74
2021/01/28 10:55:01;;;;;;;5.07;4.50;;;10.80;99.90;;;;;;5094518;28;20202;-74
2021/01/28 10:57:27;;;;;;;6.63;4.88;;;10.90;99.90;;;;;;5091398;28;20199;-74
2021/01/28 10:59:53;;;;;;;6.28;5.07;;;10.90;99.90;;;;;;5072318;28;20199;-75
2021/01/28 11:02:20;;;;;;;5.35;3.90;;;11.00;99.90;;;;;;5073622;28;20202;-75
2021/01/28 11:04:46;;;;;;;7.55;4.30;;;11.10;99.90;;;;;;5080917;28;20325;-74
2021/01/28 11:07:13;;;;;;;5.78;3.97;;;11.10;99.90;;;;;;5080903;28;20211;-74
2021/01/28 11:09:39;;;;;;;4.78;4.25;;;11.10;99.90;;;;;;5094103;28;20201;-75
2021/01/28 11:12:07;;;;;;;6.43;4.13;;;11.20;99.90;;;;;;5082931;28;20206;-74
2021/01/28 11:14:33;;;;;;;6.75;4.15;;;11.10;99.90;;;;;;5092429;28;20570;-74
2021/01/28 11:17:00;;;;;;;5.07;3.92;;;11.10;99.90;;;;;;5084275;28;20285;-74
2021/01/28 11:19:26;;;;;;;5.55;3.85;;;11.20;99.90;;;;;;5073675;28;20213;-74
2021/01/28 11:21:52;;;;;;;6.05;4.20;;;11.20;99.90;;;;;;5073649;28;20209;-73
2021/01/28 11:24:20;;;;;;;6.57;4.95;;;11.20;99.90;;;;;;5073660;28;20209;-74
2021/01/28 11:26:46;;;;;;;5.47;4.68;;;11.20;99.90;;;;;;5074107;28;20202;-74
2021/01/28 11:29:13;;;;;;;6.25;4.88;;;11.20;99.90;;;;;;5082320;28;20537;-74
2021/01/28 11:31:39;;;;;;;7.25;4.93;;;11.20;99.90;;;;;;5079771;28;20206;-75
2021/01/28 11:34:06;;;;;;;6.53;5.78;;;11.30;99.90;;;;;;5094174;28;20262;-75
2021/01/28 11:36:33;;;;;;;7.20;6.35;;;11.30;99.90;;;;;;5094358;28;20301;-75
2021/01/28 11:38:59;;;;;;;10.13;6.45;;;11.30;99.90;;;;;;5093592;28;20209;-75
2021/01/28 11:41:27;;;;;;;8.68;5.80;;;11.40;99.90;;;;;;5082434;28;20203;-75
2021/01/28 11:43:54;;;;;;;11.00;6.15;;;11.40;99.90;;;;;;5073685;28;20203;-74
2021/01/28 11:46:20;;;;;;;8.32;4.95;;;11.40;99.90;;;;;;5083618;28;20226;-75
2021/01/28 11:48:46;;;;;;;7.80;5.22;;;11.50;99.90;;;;;;5077657;28;20677;-75
2021/01/28 11:51:13;;;;;;;9.95;6.05;;;11.60;99.90;;;;;;5073617;28;20289;-77
2021/01/28 11:53:39;;;;;;;9.32;5.85;;;11.70;99.90;;;;;;5087786;28;20194;-74
2021/01/28 11:56:05;;;;;;;11.45;5.55;;;11.70;99.90;;;;;;5093903;28;20318;-74
2021/01/28 11:58:32;;;;;;;6.65;4.90;;;11.70;99.90;;;;;;5081462;28;20205;-74
2021/01/28 12:00:59;;;;;;;9.82;6.70;;;11.80;99.90;;;;;;5073493;28;20221;-74
2021/01/28 12:03:25;;;;;;;6.97;5.60;;;11.70;99.90;;;;;;5084008;28;20202;-75
2021/01/28 12:05:52;;;;;;;10.52;6.00;;;11.70;99.90;;;;;;5093192;28;20726;-74
2021/01/28 12:08:19;;;;;;;9.18;5.93;;;11.70;99.90;;;;;;5093732;28;20301;-74
2021/01/28 12:10:45;;;;;;;8.10;6.28;;;11.70;99.90;;;;;;5092748;28;20214;-77
2021/01/28 12:13:12;;;;;;;8.05;6.30;;;11.60;99.90;;;;;;5073268;28;20206;-75
2021/01/28 12:15:39;;;;;;;7.65;6.53;;;11.60;99.90;;;;;;5073259;28;20213;-75
2021/01/28 12:18:05;;;;;;;7.28;6.47;;;11.60;99.90;;;;;;5077728;28;20204;-74
2021/01/28 12:20:32;;;;;;;7.30;6.60;;;11.60;99.90;;;;;;5082108;28;20199;-75
2021/01/28 12:22:58;;;;;;;9.50;7.55;;;11.60;99.90;;;;;;5090617;28;20198;-75
2021/01/28 12:25:25;;;;;;;9.20;6.57;;;11.60;99.90;;;;;;5083982;28;20645;-75
2021/01/28 12:27:52;;;;;;;7.93;6.75;;;11.70;99.90;;;;;;5084719;28;20745;-75
2021/01/28 12:30:22;;;;;;;7.88;6.72;;;11.80;99.90;;;;;;5079242;28;20197;-74
2021/01/28 12:32:49;;;;;;;7.25;6.05;;;11.80;99.90;;;;;;5092853;28;20213;-75
2021/01/28 12:35:16;;;;;;;7.30;5.70;;;11.90;99.90;;;;;;5079259;28;20271;-75
2021/01/28 12:37:42;;;;;;;6.85;5.38;;;12.00;99.90;;;;;;5077342;28;20203;-75
2021/01/28 12:40:11;;;;;;;6.03;5.43;;;12.00;99.90;;;;;;5069483;28;20203;-75
2021/01/28 12:42:38;;;;;;;5.93;5.32;;;12.10;99.90;;;;;;5072626;28;20198;-77
2021/01/28 12:45:06;;;;;;;6.68;4.88;;;12.10;99.90;;;;;;5079987;28;20225;-75
2021/01/28 12:47:32;;;;;;;5.95;4.90;;;12.10;99.90;;;;;;5074705;28;20745;-77
2021/01/28 12:50:00;;;;;;;5.65;4.10;;;12.00;99.90;;;;;;5075182;28;20209;-75
2021/01/28 12:52:26;;;;;;;7.00;4.43;;;12.10;99.90;;;;;;5073133;28;20677;-75
2021/01/28 12:54:52;;;;;;;5.18;4.07;;;12.00;99.90;;;;;;5076031;28;20277;-75
2021/01/28 12:57:19;;;;;;;7.95;4.55;;;12.00;99.90;;;;;;5075454;28;20710;-75
2021/01/28 12:59:46;;;;;;;6.43;4.07;;;11.90;99.90;;;;;;5072464;28;20206;-75
2021/01/28 13:02:13;;;;;;;6.93;4.57;;;11.90;99.90;;;;;;5074723;28;20289;-75
2021/01/28 13:04:39;;;;;;;5.55;4.60;;;11.90;99.90;;;;;;5075727;28;20202;-75